Tallahassee, FL (32314)

10:09 PM EST on December 24, 2014 (GMT -0500)
SAIL High WeatherSTEM | Change Station
CLOSE
Current Station
Personal Weather Station
Location: Tallahassee, FL
Elevation: 118 ft
Nearby Weather Stations

Elev 118 ft 30.44 °N, 84.32 °W | Updated 8 minutes ago

Rain
Rain
55.9 °F
Feels Like 55.9 °F
N
2.0
Wind Variable Wind from WNW
Gusts 11.0 mph

Today
High -- | Low -- °F
--% Chance of Precip.
Yesterday
High -- | Low -- °F
Precip. -- in
7:31 AM 5:42 PM
Waxing Crescent, 13% visible
Pressure 29.96 in
Visibility 10.0 miles
Clouds Few 2100 ft
Few 5500 ft
Overcast 11000 ft
Dew Point 52 °F
Humidity 85%
Rainfall 0.64 in
Snow Depth Not available.
UV 0.0 out of 12
Pollen .50 out of 12
Air Quality Not available.
Flu Activity Not available.
METAR KTLH 250253Z 28009KT 10SM FEW021 FEW055 OVC110 14/09 A2996 RMK AO2 RAE10B33E47 SLP146 P0000 60000 T01390094 51046 $

More Conditions Fewer Conditions

Pressure 29.96 in
Visibility 10.0 miles
Clouds Few 2100 ft
Few 5500 ft
Overcast 11000 ft
Dew Point 52 °F
Humidity 85%
Rainfall 0.64 in
Snow Depth Not available.
UV 0.0 out of 12
Pollen .50 out of 12
Air Quality Not available.
Flu Activity Not available.
METAR KTLH 250253Z 28009KT 10SM FEW021 FEW055 OVC110 14/09 A2996 RMK AO2 RAE10B33E47 SLP146 P0000 60000 T01390094 51046 $

More Conditions Fewer Conditions

10-Day Weather Forecast

Almanac

Astronomy

Dec. 24, 2014 Rise Set
Actual Time
Civil Twilight
Nautical Twilight
Astronomical Twilight
Moon
Length of Visible Light
Length of Day
Tomorrow will be .
, % of the Moon is Illuminated

Today's Extremes

State Highs State Lows

Community

WunderPhotos

Upload Photos

1,780,222 photos uploaded!

WunderBlogs® & News

Nearby

Air Quality

  Air Quality AQ Index Pollutant
Not available.

Snow Depth

Station Depth Elevation

Earthquake Activity

City Distance Mag. Time & Date
Minimum magnitude displayed is 2.5.

Coastal Water Temperatures

Place Temperature

Nearby Weather Stations